Terminal Aerodrome Forecast
Issued by NWS

Current Version | Previous Version | Text Only | Print | Product List | Glossary On
Versions: 1 2 3 4 5 6 7 8 9 10 11 12 13 14 15 16 17 18 19 20 21 22 23 24 25 26
000 FTUS41 KOKX 301539 CCA TAFHPN TAF COR KHPN 301539Z 3016/3112 16006KT P6SM FEW040 FEW250 FM301800 18007KT P6SM FEW050 SCT250 FM310100 VRB03KT P6SM SCT250 AMD NOT SKED=

USA.gov is the U.S. government's official web portal to all federal, state and local government web resources and services.